createdAt,value
2022-09-11T00:01:01.550Z,12.23
2022-09-11T00:01:35.329Z,13.40
2022-09-11T00:02:22.535Z,10.77
2022-09-11T00:03:07.002Z,10.25
2022-09-11T00:03:39.903Z,10.77
2022-09-11T00:04:07.585Z,12.25
2022-09-11T00:06:12.026Z,11.50
2022-09-11T00:08:18.641Z,11.35
2022-09-11T00:10:43.313Z,11.53
2022-09-11T00:12:36.502Z,12.55
2022-09-11T00:13:54.537Z,11.65
2022-09-11T00:15:13.704Z,11.43
2022-09-11T00:16:35.211Z,12.18
2022-09-11T00:17:11.987Z,11.07
2022-09-11T00:17:34.059Z,12.32
2022-09-11T00:21:38.348Z,11.18
2022-09-11T00:22:48.822Z,11.63
2022-09-11T00:26:41.724Z,12.15
2022-09-11T00:27:12.591Z,11.05
2022-09-11T00:29:07.059Z,11.15
2022-09-11T00:31:12.715Z,14.48
2022-09-11T00:33:00.677Z,10.75
2022-09-11T00:33:46.478Z,12.77
2022-09-11T00:37:28.349Z,12.85
2022-09-11T00:37:53.762Z,10.95
2022-09-11T00:38:19.165Z,12.18
2022-09-11T00:41:25.680Z,11.25
2022-09-11T00:42:35.342Z,11.95
2022-09-11T00:43:18.848Z,11.57
2022-09-11T00:44:19.828Z,12.50
2022-09-11T00:45:24.148Z,12.48
2022-09-11T00:46:08.002Z,12.13
2022-09-11T00:46:34.528Z,13.10
2022-09-11T00:48:04.269Z,9.25
2022-09-11T00:49:03.122Z,13.23
2022-09-11T00:51:56.087Z,11.20
2022-09-11T00:53:34.743Z,10.50
2022-09-11T00:54:56.677Z,11.18
2022-09-11T00:55:23.236Z,11.30
2022-09-11T00:56:29.845Z,11.48
2022-09-11T00:58:02.096Z,11.77
2022-09-11T00:58:56.503Z,11.15
2022-09-11T00:59:21.394Z,11.57
2022-09-11T01:02:27.634Z,10.88
2022-09-11T01:03:05.838Z,14.07
2022-09-11T01:03:36.952Z,14.38
2022-09-11T01:04:26.482Z,13.43
2022-09-11T01:05:03.124Z,13.98
2022-09-11T01:05:28.038Z,16.33
2022-09-11T01:06:52.870Z,14.55
2022-09-11T01:07:21.662Z,15.23
2022-09-11T01:07:59.024Z,13.77
2022-09-11T01:08:34.320Z,14.40
2022-09-11T01:09:08.687Z,14.85
2022-09-11T01:11:29.120Z,14.30
2022-09-11T01:12:38.093Z,15.00
2022-09-11T01:13:28.166Z,15.83
2022-09-11T01:14:51.672Z,13.90
2022-09-11T01:15:42.846Z,14.57
2022-09-11T01:16:38.586Z,17.20
2022-09-11T01:17:39.888Z,15.02
2022-09-11T01:18:37.824Z,15.23
2022-09-11T01:19:35.022Z,16.00
2022-09-11T01:19:56.808Z,15.68
2022-09-11T01:20:28.116Z,16.52
2022-09-11T01:21:48.762Z,16.85
2022-09-11T01:22:31.418Z,16.10
2022-09-11T01:23:25.312Z,17.45
2022-09-11T01:24:08.578Z,16.25
2022-09-11T01:25:07.903Z,20.48
2022-09-11T01:26:08.947Z,18.40
2022-09-11T01:26:54.098Z,20.38
2022-09-11T01:27:38.780Z,20.63
2022-09-11T01:29:29.801Z,23.63
2022-09-11T01:30:14.753Z,23.80
2022-09-11T01:32:47.646Z,24.40
2022-09-11T01:33:53.398Z,26.92
2022-09-11T01:34:53.092Z,23.80
2022-09-11T01:36:20.207Z,27.55
2022-09-11T02:03:25.963Z,30.27
2022-09-11T02:04:32.312Z,29.95
2022-09-11T02:08:09.700Z,27.42
2022-09-11T02:08:51.694Z,28.67
2022-09-11T02:09:24.395Z,29.55
2022-09-11T02:09:59.701Z,29.67
2022-09-11T02:10:30.865Z,27.70
2022-09-11T02:11:03.212Z,29.75
2022-09-11T02:12:09.377Z,27.02
2022-09-11T02:12:46.149Z,29.60
2022-09-11T02:13:15.798Z,27.98
2022-09-11T02:13:48.814Z,27.52
2022-09-11T02:14:21.395Z,27.65
2022-09-11T02:14:56.650Z,26.88
2022-09-11T02:15:19.448Z,27.23
2022-09-11T02:15:49.107Z,26.65
2022-09-11T02:19:06.322Z,29.70
2022-09-11T02:19:39.350Z,25.95
2022-09-11T02:20:01.647Z,30.88
2022-09-11T02:21:12.845Z,30.58
2022-09-11T02:21:53.755Z,25.60
2022-09-11T02:22:16.168Z,28.58
2022-09-11T02:22:41.096Z,29.35
2022-09-11T02:23:14.465Z,26.75
2022-09-11T02:23:36.921Z,26.73
2022-09-11T02:24:11.341Z,27.90
2022-09-11T02:24:34.521Z,28.67
2022-09-11T02:24:56.839Z,29.13
2022-09-11T02:26:10.173Z,26.75
2022-09-11T02:26:41.118Z,29.13
2022-09-11T02:27:14.078Z,27.20
2022-09-11T02:27:45.978Z,29.25
2022-09-11T02:28:08.839Z,28.27
2022-09-11T02:28:31.061Z,29.55
2022-09-11T02:29:45.479Z,28.77
2022-09-11T02:30:13.742Z,30.08
2022-09-11T02:30:54.256Z,27.02
2022-09-11T02:31:21.798Z,30.08
2022-09-11T02:31:44.273Z,28.73
2022-09-11T02:32:07.410Z,28.40
2022-09-11T02:32:31.641Z,27.05
2022-09-11T02:34:46.248Z,28.45
2022-09-11T02:35:09.276Z,28.08
2022-09-11T02:35:43.686Z,27.15
2022-09-11T02:36:41.351Z,30.95
2022-09-11T02:38:01.388Z,26.00
2022-09-11T02:38:31.263Z,25.63
2022-09-11T02:39:23.482Z,27.52
2022-09-11T02:41:24.239Z,27.30
2022-09-11T02:42:19.765Z,27.25
2022-09-11T02:42:44.723Z,24.85
2022-09-11T02:44:24.135Z,25.63
2022-09-11T02:45:10.905Z,24.40
2022-09-11T02:45:49.719Z,28.08
2022-09-11T02:46:30.904Z,26.20
2022-09-11T02:46:55.588Z,26.52
2022-09-11T02:47:54.405Z,27.40
2022-09-11T02:48:24.120Z,24.63
2022-09-11T02:49:08.068Z,25.45
2022-09-11T02:51:32.419Z,25.52
2022-09-11T02:52:16.879Z,25.75
2022-09-11T02:53:13.071Z,27.67
2022-09-11T02:53:53.047Z,28.33
2022-09-11T02:55:02.245Z,28.80
2022-09-11T02:56:07.469Z,28.23
2022-09-11T02:56:41.210Z,29.98
2022-09-11T02:58:35.221Z,34.15
2022-09-11T02:59:08.845Z,30.27
2022-09-11T02:59:45.958Z,30.05
2022-09-11T03:00:21.150Z,32.35
2022-09-11T03:02:37.757Z,30.30
2022-09-11T03:03:00.164Z,33.22
2022-09-11T03:03:49.365Z,30.05
2022-09-11T03:04:13.329Z,31.35
2022-09-11T03:04:52.064Z,28.20
2022-09-11T03:05:26.887Z,29.00
2022-09-11T03:06:11.145Z,29.85
2022-09-11T03:06:32.992Z,31.25
2022-09-11T03:07:02.925Z,30.88
2022-09-11T03:07:48.150Z,32.35
2022-09-11T03:08:17.145Z,30.08
2022-09-11T03:08:38.996Z,32.90
2022-09-11T03:09:11.426Z,29.88
2022-09-11T03:09:35.327Z,29.05
2022-09-11T03:09:57.600Z,28.23
2022-09-11T03:10:19.932Z,30.20
2022-09-11T03:11:33.630Z,30.60
2022-09-11T03:11:58.213Z,29.63
2022-09-11T03:12:20.797Z,29.15
2022-09-11T03:31:16.700Z,22.60
2022-09-11T03:31:39.413Z,24.00
2022-09-11T03:32:01.565Z,21.90
2022-09-11T03:32:23.490Z,22.48
2022-09-11T03:32:48.783Z,22.55
2022-09-11T03:33:11.572Z,21.17
2022-09-11T03:33:33.644Z,22.88
2022-09-11T03:33:55.767Z,22.83
2022-09-11T03:34:18.065Z,23.25
2022-09-11T03:34:39.861Z,22.80
2022-09-11T03:35:03.325Z,21.05
2022-09-11T03:35:28.789Z,21.48
2022-09-11T03:35:50.636Z,21.35
2022-09-11T03:36:14.007Z,24.30
2022-09-11T03:36:36.471Z,21.40
2022-09-11T03:36:58.343Z,21.30
2022-09-11T03:37:22.616Z,21.88
2022-09-11T03:37:47.106Z,20.67
2022-09-11T03:38:09.088Z,21.80
2022-09-11T03:38:31.185Z,23.85
2022-09-11T03:38:53.444Z,21.13
2022-09-11T03:39:15.353Z,21.63
2022-09-11T03:39:37.652Z,21.45
2022-09-11T03:40:01.640Z,20.33
2022-09-11T03:40:26.692Z,19.98
2022-09-11T03:40:48.701Z,23.55
2022-09-11T03:41:10.872Z,24.25
2022-09-11T03:41:32.865Z,21.73
2022-09-11T03:41:58.427Z,19.83
2022-09-11T03:42:20.807Z,21.65
2022-09-11T03:42:43.001Z,22.10
2022-09-11T03:43:05.353Z,20.90
2022-09-11T03:43:27.500Z,22.45
2022-09-11T03:43:49.500Z,22.08
2022-09-11T03:44:12.952Z,21.35
2022-09-11T03:44:34.745Z,21.55
2022-09-11T03:44:56.690Z,19.65
2022-09-11T03:45:19.939Z,20.73
2022-09-11T03:45:41.904Z,22.60
2022-09-11T03:46:04.063Z,24.45
2022-09-11T03:46:25.953Z,24.45
2022-09-11T03:46:47.837Z,21.35
2022-09-11T03:47:09.950Z,20.58
2022-09-11T03:47:31.930Z,21.40
2022-09-11T03:47:54.692Z,20.92
2022-09-11T03:48:17.545Z,22.10
2022-09-11T03:48:39.376Z,22.05
2022-09-11T03:49:02.941Z,19.42
2022-09-11T03:49:25.089Z,22.05
2022-09-11T03:49:46.950Z,20.65
2022-09-11T03:50:10.551Z,20.33
2022-09-11T03:50:33.838Z,21.48
2022-09-11T03:50:59.008Z,20.88
2022-09-11T03:51:21.296Z,19.38
2022-09-11T03:51:43.172Z,21.95
2022-09-11T03:52:05.306Z,22.00
2022-09-11T03:52:27.238Z,20.63
2022-09-11T03:52:50.165Z,20.42
2022-09-11T03:53:12.754Z,22.55
2022-09-11T03:53:35.642Z,21.75
2022-09-11T03:54:02.860Z,22.98
2022-09-11T03:54:24.676Z,20.40
2022-09-11T03:54:49.156Z,22.27
2022-09-11T03:55:11.400Z,21.65
2022-09-11T03:55:33.623Z,22.10
2022-09-11T03:56:00.319Z,21.67
2022-09-11T03:56:22.121Z,22.60
2022-09-11T03:56:44.062Z,20.15
2022-09-11T03:57:07.657Z,22.85
2022-09-11T03:57:29.558Z,21.13
2022-09-11T03:57:52.512Z,21.73
2022-09-11T03:58:14.375Z,20.83
2022-09-11T03:58:37.180Z,22.25
2022-09-11T03:59:02.665Z,21.13
2022-09-11T03:59:25.233Z,19.98
2022-09-11T03:59:47.100Z,22.40
2022-09-11T04:00:10.517Z,21.15
2022-09-11T04:00:34.068Z,22.52
2022-09-11T04:00:57.306Z,21.10
2022-09-11T04:01:19.345Z,20.35
2022-09-11T04:01:41.442Z,20.65
2022-09-11T04:02:03.450Z,21.90
2022-09-11T04:02:25.413Z,21.15
2022-09-11T04:02:47.384Z,21.27
2022-09-11T04:03:10.288Z,21.83
2022-09-11T04:03:32.093Z,21.42
2022-09-11T04:03:54.636Z,22.20
2022-09-11T04:04:17.356Z,22.27
2022-09-11T04:04:39.262Z,22.20
2022-09-11T04:05:01.806Z,21.08
2022-09-11T04:05:26.711Z,20.58
2022-09-11T04:06:03.530Z,19.15
2022-09-11T04:06:25.327Z,21.20
2022-09-11T04:06:47.275Z,20.77
2022-09-11T04:07:09.122Z,20.95
2022-09-11T04:07:31.157Z,21.92
2022-09-11T04:07:55.310Z,19.58
2022-09-11T04:08:17.140Z,21.42
2022-09-11T04:08:41.308Z,21.35
2022-09-11T04:09:05.652Z,20.38
2022-09-11T04:09:27.756Z,20.33
2022-09-11T04:09:49.969Z,21.75
2022-09-11T04:10:14.541Z,20.00
2022-09-11T04:10:36.377Z,20.55
2022-09-11T04:11:06.041Z,20.38
2022-09-11T04:11:27.999Z,20.30
2022-09-11T04:11:50.961Z,19.88
2022-09-11T04:12:13.394Z,20.60
2022-09-11T04:12:35.678Z,19.50
2022-09-11T04:12:57.464Z,18.15
2022-09-11T04:13:20.922Z,17.45
2022-09-11T04:13:43.905Z,19.60
2022-09-11T04:14:07.145Z,17.40
2022-09-11T04:14:29.324Z,17.08
2022-09-11T04:14:51.337Z,15.40
2022-09-11T04:15:13.843Z,16.60
2022-09-11T04:15:35.786Z,17.20
2022-09-11T04:16:32.810Z,18.55
2022-09-11T04:16:54.925Z,17.58
2022-09-11T04:17:17.760Z,17.05
2022-09-11T04:17:39.896Z,17.67
2022-09-11T04:18:08.384Z,18.33
2022-09-11T04:18:35.259Z,16.83
2022-09-11T04:18:57.114Z,18.00
2022-09-11T04:19:21.211Z,16.90
2022-09-11T04:19:43.142Z,15.00
2022-09-11T04:20:06.096Z,16.25
2022-09-11T04:20:28.037Z,16.42
2022-09-11T04:20:50.726Z,15.98
2022-09-11T04:21:15.124Z,15.77
2022-09-11T04:21:37.088Z,14.90
2022-09-11T04:21:58.890Z,15.45
2022-09-11T04:22:20.823Z,16.73
2022-09-11T04:22:47.901Z,16.27
2022-09-11T04:23:09.784Z,16.17
2022-09-11T04:23:32.346Z,15.82
2022-09-11T04:23:56.661Z,14.23
2022-09-11T04:24:19.190Z,14.70
2022-09-11T04:24:41.129Z,15.40
2022-09-11T04:25:04.578Z,14.82
2022-09-11T04:25:26.475Z,14.73
2022-09-11T04:25:48.745Z,15.82
2022-09-11T04:26:19.377Z,15.82
2022-09-11T04:26:42.713Z,13.80
2022-09-11T04:27:07.466Z,14.00
2022-09-11T04:27:29.391Z,14.15
2022-09-11T04:27:51.363Z,14.48
2022-09-11T04:28:16.684Z,14.98
2022-09-11T04:28:42.035Z,13.18
2022-09-11T04:29:03.872Z,13.63
2022-09-11T04:29:26.417Z,13.95
2022-09-11T04:29:48.272Z,14.07
2022-09-11T04:30:10.814Z,14.07
2022-09-11T04:30:36.047Z,15.18
2022-09-11T04:31:03.885Z,14.77
2022-09-11T04:31:27.697Z,14.48
2022-09-11T04:31:49.637Z,15.88
2022-09-11T04:32:11.892Z,14.43
2022-09-11T04:32:34.403Z,14.40
2022-09-11T04:32:56.352Z,14.27
2022-09-11T04:33:18.237Z,14.85
2022-09-11T04:33:41.209Z,14.52
2022-09-11T04:34:03.119Z,15.25
2022-09-11T04:34:26.323Z,16.27
2022-09-11T04:34:48.541Z,13.88
2022-09-11T04:35:11.057Z,14.27
2022-09-11T04:35:36.761Z,14.18
2022-09-11T04:36:03.371Z,15.35
2022-09-11T04:36:30.208Z,14.20
2022-09-11T04:36:52.681Z,14.95
2022-09-11T04:37:15.706Z,15.90
2022-09-11T04:37:37.574Z,15.85
2022-09-11T04:37:59.504Z,16.17
2022-09-11T04:38:25.002Z,14.15
2022-09-11T04:38:48.553Z,14.70
2022-09-11T04:39:11.570Z,14.75
2022-09-11T04:39:34.312Z,14.70
2022-09-11T04:39:56.243Z,13.38
2022-09-11T04:40:18.130Z,15.32
2022-09-11T04:40:40.074Z,14.63
2022-09-11T04:41:04.035Z,14.25
2022-09-11T04:41:27.029Z,15.45
2022-09-11T04:41:49.416Z,15.57
2022-09-11T04:42:11.426Z,16.27
2022-09-11T04:42:33.338Z,14.68
2022-09-11T04:42:55.298Z,15.95
2022-09-11T04:43:17.837Z,15.00
2022-09-11T04:43:41.199Z,16.50
2022-09-11T04:44:05.490Z,15.57
2022-09-11T04:44:30.688Z,15.65
2022-09-11T04:44:52.605Z,15.45
2022-09-11T04:45:14.445Z,13.75
2022-09-11T04:45:36.744Z,14.18
2022-09-11T04:46:17.948Z,13.02
2022-09-11T04:46:40.993Z,13.30
2022-09-11T04:47:02.861Z,15.35
2022-09-11T04:47:24.721Z,15.70
2022-09-11T04:47:46.643Z,15.57
2022-09-11T04:48:08.969Z,13.52
2022-09-11T04:48:30.947Z,13.07
2022-09-11T04:49:02.040Z,13.63
2022-09-11T04:49:24.967Z,14.48
2022-09-11T04:49:49.783Z,14.98
2022-09-11T04:50:12.882Z,14.27
2022-09-11T04:50:34.865Z,14.30
2022-09-11T04:51:02.246Z,14.38
2022-09-11T04:51:32.864Z,13.60
2022-09-11T04:51:55.001Z,14.05
2022-09-11T04:52:17.168Z,14.73
2022-09-11T04:52:39.264Z,14.48
2022-09-11T04:53:01.058Z,14.15
2022-09-11T04:53:22.810Z,14.07
2022-09-11T04:53:44.706Z,13.43
2022-09-11T04:54:10.552Z,14.52
2022-09-11T04:54:37.266Z,13.63
2022-09-11T04:54:59.296Z,13.60
2022-09-11T04:55:22.271Z,13.85
2022-09-11T04:55:44.072Z,13.55
2022-09-11T04:56:08.426Z,12.52
2022-09-11T04:56:34.451Z,14.02
2022-09-11T04:56:58.163Z,14.88
2022-09-11T04:57:20.109Z,14.80
2022-09-11T04:57:41.921Z,13.73
2022-09-11T04:58:06.685Z,13.15
2022-09-11T04:58:31.467Z,11.55
2022-09-11T04:58:55.497Z,11.82
2022-09-11T04:59:20.184Z,12.85
2022-09-11T04:59:42.026Z,11.57
2022-09-11T05:00:06.058Z,11.00
2022-09-11T05:00:28.264Z,11.82
2022-09-11T05:00:50.519Z,13.45
2022-09-11T05:01:16.925Z,14.15
2022-09-11T05:01:39.712Z,13.35
2022-09-11T05:02:02.636Z,12.73
2022-09-11T05:02:24.819Z,13.27
2022-09-11T05:02:47.714Z,12.07
2022-09-11T05:03:09.576Z,13.82
2022-09-11T05:03:33.315Z,12.07
2022-09-11T05:03:56.299Z,12.27
2022-09-11T05:04:25.761Z,11.93
2022-09-11T05:04:49.810Z,12.73
2022-09-11T05:05:12.503Z,11.32
2022-09-11T05:05:34.910Z,12.00
2022-09-11T05:05:59.078Z,13.38
2022-09-11T05:06:20.916Z,12.50
2022-09-11T05:06:48.269Z,12.43
2022-09-11T05:07:14.476Z,12.30
2022-09-11T05:07:36.854Z,12.18
2022-09-11T05:08:01.112Z,11.38
2022-09-11T05:08:26.720Z,11.43
2022-09-11T05:08:49.164Z,11.02
2022-09-11T05:09:12.513Z,11.98
2022-09-11T05:09:34.559Z,11.65
2022-09-11T05:09:59.621Z,12.00
2022-09-11T05:10:22.389Z,11.02
2022-09-11T05:10:44.550Z,12.88
2022-09-11T05:11:06.915Z,11.82
2022-09-11T05:11:30.188Z,12.82
2022-09-11T05:11:52.084Z,11.35
2022-09-11T05:12:14.054Z,11.20
2022-09-11T05:12:35.938Z,11.77
2022-09-11T05:12:57.865Z,10.90
2022-09-11T05:13:20.130Z,10.85
2022-09-11T05:13:44.037Z,11.05
2022-09-11T05:14:06.456Z,12.52
2022-09-11T05:14:29.381Z,12.20
2022-09-11T05:14:51.374Z,11.02
2022-09-11T05:15:14.399Z,10.30
2022-09-11T05:15:36.278Z,10.48
2022-09-11T05:16:05.545Z,10.47
2022-09-11T05:16:28.937Z,11.32
2022-09-11T05:16:53.721Z,10.88
2022-09-11T05:17:15.705Z,10.93
2022-09-11T05:17:39.555Z,10.73
2022-09-11T05:18:01.512Z,10.32
2022-09-11T05:18:23.417Z,10.35
2022-09-11T05:18:53.500Z,10.00
2022-09-11T05:19:15.394Z,15.48
2022-09-11T05:19:38.653Z,16.17
2022-09-11T05:20:00.880Z,10.88
2022-09-11T05:20:25.299Z,10.52
2022-09-11T05:20:47.182Z,9.48
2022-09-11T05:21:14.211Z,10.18
2022-09-11T05:21:36.679Z,10.30
2022-09-11T05:21:58.603Z,11.48
2022-09-11T05:22:20.524Z,11.70
2022-09-11T05:22:42.411Z,10.30
2022-09-11T05:23:07.196Z,11.27
2022-09-11T05:23:30.282Z,11.98
2022-09-11T05:23:55.966Z,12.35
2022-09-11T05:24:18.081Z,10.90
2022-09-11T05:24:40.740Z,9.60
2022-09-11T05:25:02.688Z,10.32
2022-09-11T05:25:27.626Z,10.73
2022-09-11T05:25:50.268Z,11.70
2022-09-11T05:26:17.983Z,9.95
2022-09-11T05:26:39.817Z,10.68
2022-09-11T05:27:01.779Z,10.10
2022-09-11T05:27:23.695Z,9.45
2022-09-11T05:27:45.496Z,10.18
2022-09-11T05:28:08.375Z,10.95
2022-09-11T05:28:32.719Z,10.45
2022-09-11T05:28:57.313Z,9.38
2022-09-11T05:29:19.706Z,10.63
2022-09-11T05:29:46.279Z,11.45
2022-09-11T05:30:08.792Z,9.50
2022-09-11T05:30:30.710Z,10.48
2022-09-11T05:30:57.276Z,10.07
2022-09-11T05:31:19.285Z,10.00
2022-09-11T05:31:41.497Z,11.13
2022-09-11T05:32:03.760Z,12.45
2022-09-11T05:32:25.676Z,9.30
2022-09-11T05:32:48.223Z,9.63
2022-09-11T05:33:10.259Z,10.38
2022-09-11T05:33:32.126Z,9.23
2022-09-11T05:33:59.264Z,8.85
2022-09-11T05:34:22.458Z,9.43
2022-09-11T05:34:44.315Z,9.50
2022-09-11T05:35:07.264Z,9.60
2022-09-11T05:35:32.346Z,9.98
2022-09-11T05:35:55.428Z,8.00
2022-09-11T05:36:18.021Z,8.27
2022-09-11T05:36:44.338Z,9.10
2022-09-11T05:37:06.270Z,9.80
2022-09-11T05:37:29.812Z,9.10
2022-09-11T05:37:52.316Z,9.00
2022-09-11T05:38:14.214Z,8.57
2022-09-11T05:38:39.287Z,8.52
2022-09-11T05:39:01.659Z,9.57
2022-09-11T05:39:27.359Z,8.63
2022-09-11T05:39:49.223Z,8.02
2022-09-11T05:40:12.784Z,7.70
2022-09-11T05:40:34.684Z,9.60
2022-09-11T05:40:57.143Z,8.52
2022-09-11T05:41:20.150Z,8.70
2022-09-11T05:41:42.272Z,8.23
2022-09-11T05:42:04.684Z,8.30
2022-09-11T05:42:28.834Z,7.75
2022-09-11T05:42:58.494Z,7.93
2022-09-11T05:43:20.853Z,8.45
2022-09-11T05:43:43.601Z,8.75
2022-09-11T05:44:08.775Z,9.25
2022-09-11T05:44:32.317Z,8.38
2022-09-11T05:44:54.821Z,9.98
2022-09-11T05:45:22.157Z,10.73
2022-09-11T05:45:46.116Z,10.80
2022-09-11T05:46:11.860Z,9.48
2022-09-11T05:46:34.865Z,8.48
2022-09-11T05:46:57.202Z,9.82
2022-09-11T05:47:21.421Z,7.57
2022-09-11T05:47:43.264Z,8.13
2022-09-11T05:48:08.836Z,8.35
2022-09-11T05:48:34.752Z,7.45
2022-09-11T05:48:58.844Z,7.45
2022-09-11T05:49:21.958Z,7.80
2022-09-11T05:49:43.832Z,8.27
2022-09-11T05:50:06.297Z,6.60
2022-09-11T05:50:28.288Z,7.47
2022-09-11T05:50:59.299Z,7.75
2022-09-11T05:51:22.562Z,7.47
2022-09-11T05:51:44.638Z,8.15
2022-09-11T05:52:06.621Z,7.05
2022-09-11T05:52:30.665Z,6.32
2022-09-11T05:52:53.532Z,8.15
2022-09-11T05:53:15.549Z,8.70
2022-09-11T05:53:38.134Z,7.28
2022-09-11T05:54:00.273Z,7.05
2022-09-11T05:54:22.792Z,7.55
2022-09-11T05:54:44.695Z,6.93
2022-09-11T05:55:07.127Z,7.68
2022-09-11T05:55:29.132Z,6.90
2022-09-11T05:55:55.095Z,7.28
2022-09-11T05:56:23.139Z,7.07
2022-09-11T05:56:45.417Z,7.10
2022-09-11T05:57:08.037Z,7.90
2022-09-11T05:57:30.065Z,7.47
2022-09-11T05:57:58.339Z,8.38
2022-09-11T05:58:21.782Z,7.75
2022-09-11T05:58:44.824Z,7.57
2022-09-11T05:59:14.312Z,8.20
2022-09-11T05:59:36.729Z,8.80
2022-09-11T05:59:58.832Z,8.48
2022-09-11T06:00:21.621Z,8.75
2022-09-11T06:00:46.873Z,7.63
2022-09-11T06:01:12.306Z,7.75
2022-09-11T06:01:34.361Z,7.47
2022-09-11T06:01:56.865Z,7.38
2022-09-11T06:02:18.968Z,8.23
2022-09-11T06:02:40.818Z,7.55
2022-09-11T06:03:03.353Z,9.00
2022-09-11T06:03:26.581Z,10.27
2022-09-11T06:03:49.982Z,9.63
2022-09-11T06:04:12.837Z,8.18
2022-09-11T06:04:34.631Z,7.97
2022-09-11T06:04:56.918Z,9.13
2022-09-11T06:05:19.424Z,8.15
2022-09-11T06:05:42.139Z,7.68
2022-09-11T06:06:06.186Z,6.65
2022-09-11T06:06:29.473Z,7.80
2022-09-11T06:06:51.491Z,7.07
2022-09-11T06:07:13.391Z,8.88
2022-09-11T06:07:35.462Z,7.15
2022-09-11T06:07:58.159Z,8.55
2022-09-11T06:08:22.838Z,7.13
2022-09-11T06:08:47.646Z,7.10
2022-09-11T06:09:09.714Z,6.60
2022-09-11T06:09:31.615Z,6.38
2022-09-11T06:09:53.935Z,7.30
2022-09-11T06:10:16.222Z,7.30
2022-09-11T06:10:48.894Z,6.70
2022-09-11T06:11:13.263Z,6.45
2022-09-11T06:11:36.376Z,6.35
2022-09-11T06:11:59.128Z,7.13
2022-09-11T06:12:21.120Z,5.60
2022-09-11T06:12:43.083Z,5.90
2022-09-11T06:13:05.556Z,5.75
2022-09-11T06:13:36.005Z,5.82
2022-09-11T06:13:57.881Z,5.18
2022-09-11T06:14:24.568Z,4.85
2022-09-11T06:14:48.425Z,4.97
2022-09-11T06:15:36.284Z,5.75
2022-09-11T06:15:58.498Z,6.35
2022-09-11T06:16:23.095Z,5.10
2022-09-11T06:16:45.212Z,5.10
2022-09-11T06:17:07.261Z,5.60
2022-09-11T06:17:29.267Z,5.03
2022-09-11T06:17:53.668Z,4.93
2022-09-11T06:18:19.112Z,5.55
2022-09-11T06:18:43.260Z,5.95
2022-09-11T06:19:05.730Z,4.82
2022-09-11T06:19:27.785Z,4.63
2022-09-11T06:19:49.802Z,5.15
2022-09-11T06:20:12.514Z,5.40
2022-09-11T06:20:34.485Z,5.00
2022-09-11T06:21:01.478Z,5.88
2022-09-11T06:21:27.279Z,6.47
2022-09-11T06:21:53.034Z,4.90
2022-09-11T06:22:15.004Z,5.07
2022-09-11T06:22:37.730Z,5.70
2022-09-11T06:23:00.972Z,4.88
2022-09-11T06:23:23.068Z,4.72
2022-09-11T06:23:45.883Z,5.43
2022-09-11T06:24:08.015Z,5.68
2022-09-11T06:24:29.959Z,4.78
2022-09-11T06:24:51.958Z,5.00
2022-09-11T06:25:20.639Z,4.72
2022-09-11T06:25:42.525Z,5.80
2022-09-11T06:26:06.554Z,5.45
2022-09-11T06:27:26.051Z,5.13
2022-09-11T06:27:47.845Z,5.53
2022-09-11T06:28:09.835Z,4.45
2022-09-11T06:28:33.114Z,4.75
2022-09-11T06:28:56.456Z,5.32
2022-09-11T06:29:19.797Z,5.40
2022-09-11T06:30:22.881Z,4.95
2022-09-11T06:30:48.484Z,6.13
2022-09-11T06:31:13.482Z,5.55
2022-09-11T06:31:35.336Z,4.63
2022-09-11T06:31:57.025Z,5.55
2022-09-11T06:32:19.879Z,5.18
2022-09-11T06:32:41.639Z,5.00
2022-09-11T06:33:03.668Z,4.90
2022-09-11T06:33:25.381Z,4.60
2022-09-11T06:33:47.947Z,4.93
2022-09-11T06:34:09.691Z,4.65
2022-09-11T06:34:31.879Z,4.65
2022-09-11T06:34:54.472Z,5.05
2022-09-11T06:35:16.272Z,5.47
2022-09-11T06:35:37.983Z,5.07
2022-09-11T06:36:01.413Z,5.13
2022-09-11T06:36:32.663Z,4.85
2022-09-11T06:36:54.732Z,5.03
2022-09-11T06:37:16.527Z,6.07
2022-09-11T06:37:38.847Z,6.22
2022-09-11T06:38:01.050Z,6.30
2022-09-11T06:38:24.124Z,5.78
2022-09-11T06:38:46.567Z,5.20
2022-09-11T06:39:08.599Z,5.30
2022-09-11T06:39:31.938Z,5.15
2022-09-11T06:39:53.723Z,5.20
2022-09-11T06:40:16.011Z,5.30
2022-09-11T06:40:38.286Z,5.28
2022-09-11T06:41:04.567Z,5.65
2022-09-11T06:41:27.649Z,5.40
2022-09-11T06:41:50.254Z,5.10
2022-09-11T06:42:11.999Z,5.65
2022-09-11T06:42:34.258Z,4.90
2022-09-11T06:42:56.173Z,4.95
2022-09-11T06:43:18.890Z,4.82
2022-09-11T06:43:42.694Z,5.03
2022-09-11T06:44:05.247Z,5.25
2022-09-11T06:44:27.373Z,4.50
2022-09-11T06:44:51.389Z,4.97
2022-09-11T06:45:13.282Z,5.45
2022-09-11T06:45:36.266Z,5.18
2022-09-11T06:46:13.157Z,5.20
2022-09-11T06:46:35.443Z,5.25
2022-09-11T06:46:57.982Z,4.90
2022-09-11T06:47:20.804Z,5.35
2022-09-11T06:47:42.825Z,5.22
2022-09-11T06:48:04.547Z,5.22
2022-09-11T06:48:26.496Z,5.53
2022-09-11T06:48:50.259Z,5.03
2022-09-11T06:49:16.522Z,5.22
2022-09-11T06:49:38.518Z,5.38
2022-09-11T06:50:01.369Z,5.53
2022-09-11T06:50:23.496Z,5.28
2022-09-11T06:50:46.341Z,5.78
2022-09-11T06:51:35.687Z,5.60
2022-09-11T06:51:58.502Z,6.22
2022-09-11T06:52:20.397Z,5.10
2022-09-11T06:52:44.736Z,5.25
2022-09-11T06:53:12.580Z,4.97
2022-09-11T06:53:36.886Z,4.88
2022-09-11T06:54:02.457Z,5.82
2022-09-11T06:54:24.165Z,5.93
2022-09-11T06:54:46.218Z,5.30
2022-09-11T06:55:13.714Z,4.95
2022-09-11T06:55:35.896Z,4.65
2022-09-11T06:56:02.262Z,4.40
2022-09-11T06:56:24.526Z,4.85
2022-09-11T06:56:46.486Z,4.35
2022-09-11T06:57:08.436Z,4.95
2022-09-11T06:57:30.479Z,4.78
2022-09-11T06:57:53.074Z,4.43
2022-09-11T06:58:15.366Z,4.40
2022-09-11T06:58:37.299Z,4.40
2022-09-11T06:58:59.450Z,5.55
2022-09-11T06:59:23.842Z,5.00
2022-09-11T06:59:45.957Z,4.13
2022-09-11T07:00:08.992Z,3.95
2022-09-11T07:00:31.310Z,4.22
2022-09-11T07:00:53.393Z,5.30
2022-09-11T07:01:17.357Z,5.70
2022-09-11T07:01:42.293Z,4.40
2022-09-11T07:02:04.361Z,5.97
2022-09-11T07:02:26.377Z,4.82
2022-09-11T07:02:48.098Z,4.30
2022-09-11T07:03:11.490Z,4.20
2022-09-11T07:03:33.779Z,6.70
2022-09-11T07:03:56.313Z,4.70
2022-09-11T07:04:18.349Z,4.35
2022-09-11T07:04:40.044Z,4.25
2022-09-11T07:05:02.112Z,3.88
2022-09-11T07:05:24.668Z,3.60
2022-09-11T07:05:50.130Z,3.55
2022-09-11T07:06:16.662Z,3.72
2022-09-11T07:06:39.220Z,3.50
2022-09-11T07:07:01.004Z,3.70
2022-09-11T07:07:22.945Z,3.75
2022-09-11T07:07:44.973Z,3.67
2022-09-11T07:08:06.980Z,3.40
2022-09-11T07:08:35.648Z,3.30
2022-09-11T07:09:03.115Z,3.63
2022-09-11T07:09:24.873Z,4.03
2022-09-11T07:09:46.615Z,3.10
2022-09-11T07:10:09.417Z,2.97
2022-09-11T07:10:33.351Z,2.70
2022-09-11T07:10:55.226Z,2.90
2022-09-11T07:11:17.745Z,3.40
2022-09-11T07:11:43.747Z,3.10
2022-09-11T07:12:07.119Z,3.40
2022-09-11T07:12:28.886Z,3.00
2022-09-11T07:12:55.733Z,2.80
2022-09-11T07:13:17.614Z,2.75
2022-09-11T07:13:40.193Z,2.60
2022-09-11T07:14:06.460Z,3.20
2022-09-11T07:14:45.209Z,4.40
2022-09-11T07:15:08.082Z,2.58
2022-09-11T07:16:11.649Z,2.40
2022-09-11T07:17:14.963Z,2.22
2022-09-11T07:17:35.103Z,2.40
2022-09-11T07:17:57.931Z,2.10
2022-09-11T07:18:20.033Z,2.10
2022-09-11T07:18:43.985Z,2.78
2022-09-11T07:19:07.939Z,2.22
2022-09-11T07:19:29.941Z,2.95
2022-09-11T07:19:52.649Z,2.28
2022-09-11T07:20:15.066Z,2.20
2022-09-11T07:20:39.426Z,2.42
2022-09-11T07:21:04.356Z,2.28
2022-09-11T07:21:27.826Z,1.95
2022-09-11T07:21:49.680Z,1.92
2022-09-11T07:22:11.376Z,3.00
2022-09-11T07:22:35.453Z,2.65
2022-09-11T07:23:00.167Z,2.10
2022-09-11T07:23:22.013Z,2.25
2022-09-11T07:24:16.705Z,2.35
2022-09-11T07:24:38.789Z,2.15
2022-09-11T07:25:02.803Z,1.90
2022-09-11T07:25:27.662Z,2.25
2022-09-11T07:25:49.844Z,2.10
2022-09-11T07:26:12.928Z,2.25
2022-09-11T07:26:36.887Z,2.25
2022-09-11T07:26:58.825Z,2.30
2022-09-11T07:27:21.040Z,2.17
2022-09-11T07:27:43.279Z,1.90
2022-09-11T07:28:05.192Z,2.20
2022-09-11T07:28:26.976Z,2.20
2022-09-11T07:28:52.480Z,2.43
2022-09-11T07:29:14.299Z,2.35
2022-09-11T07:29:36.257Z,2.30
2022-09-11T07:29:58.365Z,2.60
2022-09-11T07:30:20.131Z,3.75
2022-09-11T07:30:42.068Z,2.45
2022-09-11T07:31:20.834Z,2.50
2022-09-11T07:31:42.980Z,3.00
2022-09-11T07:32:07.511Z,2.42
2022-09-11T07:32:31.238Z,2.40
2022-09-11T07:32:53.266Z,2.35
2022-09-11T07:33:15.900Z,2.55
2022-09-11T07:33:43.284Z,2.55
2022-09-11T07:34:08.366Z,2.25
2022-09-11T07:34:30.093Z,2.25
2022-09-11T07:34:52.041Z,2.30